Time;durP1;ratioP1;P1;durP2;ratioP2;P2;SDS_P1;SDS_P2;PMS_P1;PMS_P2;Temp;Humidity;BMP_temperature;BMP_pressure;BME280_temperature;BME280_humidity;BME280_pressure;Samples;Min_cycle;Max_cycle;Signal;HPM_P1;HPM_P2
2023/07/18 00:01:34;;;;;;;7.17;4.60;;;;;;;;;;5040215;28;20230;-66
2023/07/18 00:04:02;;;;;;;5.40;3.77;;;;;;;;;;5040117;28;20238;-66
2023/07/18 00:06:30;;;;;;;6.50;3.73;;;;;;;;;;5039976;28;20226;-66
2023/07/18 00:08:59;;;;;;;8.10;5.27;;;;;;;;;;5039864;28;20210;-66
2023/07/18 00:11:27;;;;;;;9.13;5.03;;;;;;;;;;5053440;28;20235;-66
2023/07/18 00:13:55;;;;;;;9.17;5.83;;;;;;;;;;5039757;28;20710;-66
2023/07/18 00:16:23;;;;;;;9.57;5.63;;;;;;;;;;5039918;28;20289;-66
2023/07/18 00:18:51;;;;;;;10.13;5.63;;;;;;;;;;5040005;28;20213;-66
2023/07/18 00:21:19;;;;;;;10.50;5.57;;;;;;;;;;5046248;28;20594;-66
2023/07/18 00:23:48;;;;;;;9.60;5.83;;;;;;;;;;5059445;28;20685;-66
2023/07/18 00:26:17;;;;;;;10.30;4.93;;;;;;;;;;5059416;28;20275;-66
2023/07/18 00:28:45;;;;;;;8.13;4.60;;;;;;;;;;5059379;28;20735;-66
2023/07/18 00:31:12;;;;;;;5.73;4.20;;;;;;;;;;5059634;28;20719;-66
2023/07/18 00:33:40;;;;;;;6.50;4.10;;;;;;;;;;5059083;28;20735;-66
2023/07/18 00:36:08;;;;;;;5.57;3.80;;;;;;;;;;5059223;28;20206;-66
2023/07/18 00:38:36;;;;;;;8.83;3.73;;;;;;;;;;5058939;28;20264;-66
2023/07/18 00:41:05;;;;;;;4.43;3.33;;;;;;;;;;5050238;28;20259;-65
2023/07/18 00:43:34;;;;;;;8.10;3.67;;;;;;;;;;5039199;28;20577;-66
2023/07/18 00:46:02;;;;;;;7.63;3.57;;;;;;;;;;5039334;28;20234;-66
2023/07/18 00:48:32;;;;;;;7.33;3.53;;;;;;;;;;5039321;28;20211;-66
2023/07/18 00:51:00;;;;;;;4.73;3.20;;;;;;;;;;5039203;28;20234;-66
2023/07/18 00:53:28;;;;;;;5.73;3.47;;;;;;;;;;5039048;28;20288;-66
2023/07/18 00:55:56;;;;;;;5.50;3.33;;;;;;;;;;5039067;28;20564;-66
2023/07/18 00:58:24;;;;;;;4.77;3.20;;;;;;;;;;5038786;28;20564;-65
2023/07/18 01:00:54;;;;;;;7.30;3.80;;;;;;;;;;5045707;28;20256;-65
2023/07/18 01:03:22;;;;;;;7.90;3.30;;;;;;;;;;5038803;28;20748;-65
2023/07/18 01:05:50;;;;;;;4.13;3.00;;;;;;;;;;5039117;28;20320;-65
2023/07/18 01:08:18;;;;;;;5.40;3.47;;;;;;;;;;5038481;28;20291;-65
2023/07/18 01:10:46;;;;;;;3.27;2.83;;;;;;;;;;5052276;28;20228;-65
2023/07/18 01:13:14;;;;;;;8.00;3.83;;;;;;;;;;5038719;28;20232;-65
2023/07/18 01:15:43;;;;;;;6.43;3.47;;;;;;;;;;5038754;28;20668;-65
2023/07/18 01:18:13;;;;;;;4.63;3.30;;;;;;;;;;5038861;28;20208;-65
2023/07/18 01:20:44;;;;;;;5.20;2.90;;;;;;;;;;5038367;28;20235;-65
2023/07/18 01:23:13;;;;;;;5.43;2.90;;;;;;;;;;5048684;28;20215;-65
2023/07/18 01:25:42;;;;;;;6.03;2.90;;;;;;;;;;5038419;28;20242;-65
2023/07/18 01:28:10;;;;;;;5.00;3.53;;;;;;;;;;5045352;28;20212;-65
2023/07/18 01:30:38;;;;;;;5.87;3.00;;;;;;;;;;5058145;28;20251;-65
2023/07/18 01:33:06;;;;;;;4.93;2.90;;;;;;;;;;5058364;28;20251;-65
2023/07/18 01:35:34;;;;;;;4.97;3.53;;;;;;;;;;5058390;28;20679;-65
2023/07/18 01:38:02;;;;;;;4.97;3.10;;;;;;;;;;5058106;28;20206;-65
2023/07/18 01:40:31;;;;;;;6.63;3.50;;;;;;;;;;5056827;28;20312;-65
2023/07/18 01:42:59;;;;;;;5.43;3.27;;;;;;;;;;5038416;28;20270;-65
2023/07/18 01:45:28;;;;;;;8.30;3.00;;;;;;;;;;5038336;28;20212;-65
2023/07/18 01:47:56;;;;;;;4.77;3.10;;;;;;;;;;5038287;28;20286;-65
2023/07/18 01:50:24;;;;;;;4.07;3.37;;;;;;;;;;5038185;28;20872;-65
2023/07/18 01:52:52;;;;;;;6.70;3.40;;;;;;;;;;5037961;28;20213;-65
2023/07/18 01:55:20;;;;;;;5.53;3.33;;;;;;;;;;5037999;28;20298;-65
2023/07/18 01:57:50;;;;;;;4.77;3.17;;;;;;;;;;5037918;28;20210;-65
2023/07/18 02:00:20;;;;;;;6.00;3.60;;;;;;;;;;5047367;28;20229;-65
2023/07/18 02:02:51;;;;;;;7.90;3.40;;;;;;;;;;5038104;28;20289;-65
2023/07/18 02:05:22;;;;;;;5.17;3.57;;;;;;;;;;5037780;28;20216;-65
2023/07/18 02:07:52;;;;;;;6.20;3.43;;;;;;;;;;5037398;28;20647;-65
2023/07/18 02:10:21;;;;;;;6.83;2.63;;;;;;;;;;5046936;28;20280;-65
2023/07/18 02:12:51;;;;;;;4.80;3.10;;;;;;;;;;5040718;28;20209;-65
2023/07/18 02:15:20;;;;;;;4.97;3.07;;;;;;;;;;5037721;28;20224;-65
2023/07/18 02:17:48;;;;;;;6.10;3.57;;;;;;;;;;5037644;28;20615;-65
2023/07/18 02:20:16;;;;;;;4.93;3.23;;;;;;;;;;5037826;28;20258;-65
2023/07/18 02:22:44;;;;;;;20.60;3.57;;;;;;;;;;5037506;28;20222;-65
2023/07/18 02:25:13;;;;;;;4.37;3.27;;;;;;;;;;5037826;28;20214;-65
2023/07/18 02:27:42;;;;;;;3.83;2.87;;;;;;;;;;5037748;28;20228;-65
2023/07/18 02:30:12;;;;;;;3.93;3.33;;;;;;;;;;5037759;28;20240;-65
2023/07/18 02:32:40;;;;;;;5.40;3.03;;;;;;;;;;5044326;28;20649;-64
2023/07/18 02:35:08;;;;;;;4.67;3.13;;;;;;;;;;5057564;28;20211;-64
2023/07/18 02:37:36;;;;;;;3.50;2.93;;;;;;;;;;5057138;28;20207;-64
2023/07/18 02:40:08;;;;;;;6.47;3.20;;;;;;;;;;5056838;28;20225;-64
2023/07/18 02:42:38;;;;;;;4.70;3.30;;;;;;;;;;5037719;28;20211;-64
2023/07/18 02:45:08;;;;;;;5.70;3.40;;;;;;;;;;5037588;28;20244;-64
2023/07/18 02:47:38;;;;;;;6.67;3.33;;;;;;;;;;5037587;28;20233;-64
2023/07/18 02:50:07;;;;;;;6.43;3.47;;;;;;;;;;5037438;28;20238;-64
2023/07/18 02:52:35;;;;;;;7.67;2.83;;;;;;;;;;5037236;28;20204;-64
2023/07/18 02:55:03;;;;;;;6.00;3.67;;;;;;;;;;5037380;28;20244;-64
2023/07/18 02:57:31;;;;;;;4.50;2.70;;;;;;;;;;5037514;28;20209;-64
2023/07/18 02:59:59;;;;;;;4.17;3.20;;;;;;;;;;5044413;28;20322;-64
2023/07/18 03:02:28;;;;;;;5.70;2.80;;;;;;;;;;5037495;28;20204;-64
2023/07/18 03:04:58;;;;;;;4.20;2.70;;;;;;;;;;5037309;28;20204;-64
2023/07/18 03:07:26;;;;;;;4.13;3.27;;;;;;;;;;5037001;28;20231;-64
2023/07/18 03:09:53;;;;;;;4.97;3.00;;;;;;;;;;5043681;28;20225;-64
2023/07/18 03:12:22;;;;;;;5.80;3.43;;;;;;;;;;5050356;28;20205;-64
2023/07/18 03:14:49;;;;;;;4.37;2.70;;;;;;;;;;5037839;28;20294;-64
2023/07/18 03:17:17;;;;;;;7.17;3.50;;;;;;;;;;5037344;28;20289;-64
2023/07/18 03:19:45;;;;;;;5.17;2.90;;;;;;;;;;5037094;28;20212;-64
2023/07/18 03:22:14;;;;;;;6.53;3.07;;;;;;;;;;5040607;28;20219;-64
2023/07/18 03:24:42;;;;;;;6.43;2.70;;;;;;;;;;5048592;28;20214;-64
2023/07/18 03:27:09;;;;;;;7.33;3.27;;;;;;;;;;5040942;28;20240;-64
2023/07/18 03:29:37;;;;;;;5.30;2.63;;;;;;;;;;5040580;28;20208;-64
2023/07/18 03:32:05;;;;;;;5.93;2.87;;;;;;;;;;5040662;28;20210;-64
2023/07/18 03:34:33;;;;;;;5.80;3.30;;;;;;;;;;5040373;28;20316;-64
2023/07/18 03:37:01;;;;;;;7.40;3.00;;;;;;;;;;5040722;28;20221;-64
2023/07/18 03:39:31;;;;;;;3.53;2.90;;;;;;;;;;5046220;28;20736;-64
2023/07/18 03:41:58;;;;;;;4.23;3.07;;;;;;;;;;5044614;28;20242;-64
2023/07/18 03:44:26;;;;;;;4.23;2.87;;;;;;;;;;5054229;28;20339;-64
2023/07/18 03:46:54;;;;;;;4.50;2.90;;;;;;;;;;5051348;28;20213;-64
2023/07/18 03:49:37;;;;;;;4.10;3.17;;;;;;;;;;5042524;28;20661;-64
2023/07/18 03:52:05;;;;;;;3.63;2.83;;;;;;;;;;5052433;28;20207;-64
2023/07/18 03:54:35;;;;;;;3.13;2.70;;;;;;;;;;5040219;28;20218;-64
2023/07/18 03:57:03;;;;;;;3.83;3.17;;;;;;;;;;5040346;28;20278;-64
2023/07/18 03:59:31;;;;;;;5.80;2.83;;;;;;;;;;5047326;28;20217;-64
2023/07/18 04:01:59;;;;;;;4.93;2.90;;;;;;;;;;5041216;28;20680;-64
2023/07/18 04:04:28;;;;;;;3.63;2.63;;;;;;;;;;5051756;28;20206;-64
2023/07/18 04:06:55;;;;;;;4.97;2.70;;;;;;;;;;5041199;28;20218;-63
2023/07/18 04:09:23;;;;;;;7.53;3.30;;;;;;;;;;5041953;28;20215;-64
2023/07/18 04:11:52;;;;;;;5.10;2.57;;;;;;;;;;5050885;28;20317;-64
2023/07/18 04:14:20;;;;;;;7.57;3.10;;;;;;;;;;5040033;28;20286;-63
2023/07/18 04:16:48;;;;;;;4.17;2.37;;;;;;;;;;5040062;28;20224;-64
2023/07/18 04:19:15;;;;;;;5.43;2.70;;;;;;;;;;5039625;28;20211;-63
2023/07/18 04:21:43;;;;;;;4.70;2.73;;;;;;;;;;5060609;28;20234;-64
2023/07/18 04:24:11;;;;;;;5.97;2.90;;;;;;;;;;5065869;28;20200;-63
2023/07/18 04:26:39;;;;;;;6.03;3.03;;;;;;;;;;5064872;28;20230;-64
2023/07/18 04:29:08;;;;;;;4.10;2.83;;;;;;;;;;5070091;28;20224;-64
2023/07/18 04:31:36;;;;;;;4.43;2.80;;;;;;;;;;5069020;28;20219;-64
2023/07/18 04:34:04;;;;;;;4.63;2.77;;;;;;;;;;5065398;28;20281;-64
2023/07/18 04:36:33;;;;;;;4.23;2.83;;;;;;;;;;5065596;28;20230;-64
2023/07/18 04:39:00;;;;;;;6.97;2.73;;;;;;;;;;5064388;28;20582;-64
2023/07/18 04:41:28;;;;;;;3.87;2.40;;;;;;;;;;5065974;28;20223;-63
2023/07/18 04:44:17;;;;;;;5.40;2.67;;;;;;;;;;5068230;28;20288;-64
2023/07/18 04:46:45;;;;;;;4.37;2.67;;;;;;;;;;5063957;28;20595;-64
2023/07/18 04:49:13;;;;;;;3.07;2.10;;;;;;;;;;5066629;28;20223;-63
2023/07/18 04:51:41;;;;;;;3.80;2.70;;;;;;;;;;5065377;28;20237;-63
2023/07/18 04:54:08;;;;;;;4.47;2.70;;;;;;;;;;5065971;28;20205;-63
2023/07/18 04:56:36;;;;;;;4.67;2.60;;;;;;;;;;5065118;28;20235;-64
2023/07/18 04:59:05;;;;;;;5.27;2.60;;;;;;;;;;5059351;28;20202;-64
2023/07/18 05:01:36;;;;;;;2.77;2.43;;;;;;;;;;5060668;28;20578;-64
2023/07/18 05:04:04;;;;;;;5.50;2.77;;;;;;;;;;5068045;28;20677;-63
2023/07/18 05:06:32;;;;;;;6.90;3.10;;;;;;;;;;5064833;28;20277;-64
2023/07/18 05:09:00;;;;;;;3.37;2.63;;;;;;;;;;5060956;28;20254;-63
2023/07/18 05:11:28;;;;;;;3.87;2.80;;;;;;;;;;5052956;28;20737;-63
2023/07/18 05:13:57;;;;;;;6.07;3.00;;;;;;;;;;5047482;28;20202;-63
2023/07/18 05:16:25;;;;;;;5.77;3.47;;;;;;;;;;5061551;28;20681;-64
2023/07/18 05:18:55;;;;;;;5.47;2.67;;;;;;;;;;5038715;28;20264;-64
2023/07/18 05:21:22;;;;;;;8.57;3.00;;;;;;;;;;5038601;28;20240;-64
2023/07/18 05:23:51;;;;;;;6.30;2.70;;;;;;;;;;5037560;28;20555;-63
2023/07/18 05:26:19;;;;;;;4.30;2.27;;;;;;;;;;5043090;28;20725;-64
2023/07/18 05:28:46;;;;;;;4.23;2.30;;;;;;;;;;5038574;28;20238;-64
2023/07/18 05:31:14;;;;;;;3.30;2.20;;;;;;;;;;5038334;28;20662;-64
2023/07/18 05:33:42;;;;;;;4.70;2.80;;;;;;;;;;5037996;28;20246;-64
2023/07/18 05:36:11;;;;;;;7.10;2.83;;;;;;;;;;5037886;28;20649;-64
2023/07/18 05:38:39;;;;;;;4.40;2.70;;;;;;;;;;5037909;28;20227;-64
2023/07/18 05:41:07;;;;;;;2.93;2.50;;;;;;;;;;5042070;28;20698;-64
2023/07/18 05:43:34;;;;;;;4.20;2.83;;;;;;;;;;5037231;28;20207;-64
2023/07/18 05:46:02;;;;;;;4.10;2.83;;;;;;;;;;5044505;28;20204;-64
2023/07/18 05:48:30;;;;;;;6.67;3.10;;;;;;;;;;5052772;28;20284;-64
2023/07/18 05:50:58;;;;;;;5.13;2.60;;;;;;;;;;5037628;28;20229;-64
2023/07/18 05:53:27;;;;;;;6.17;2.50;;;;;;;;;;5040861;28;20836;-64
2023/07/18 05:55:55;;;;;;;4.73;2.63;;;;;;;;;;5037856;28;20263;-63
2023/07/18 05:58:23;;;;;;;3.63;2.90;;;;;;;;;;5037753;28;20243;-62
2023/07/18 06:00:51;;;;;;;4.07;3.13;;;;;;;;;;5044914;28;20234;-62
2023/07/18 06:03:19;;;;;;;3.83;2.63;;;;;;;;;;5050614;28;20215;-62
2023/07/18 06:05:52;;;;;;;6.07;2.30;;;;;;;;;;5049351;28;20206;-62
2023/07/18 06:08:20;;;;;;;4.87;2.80;;;;;;;;;;5057229;28;20218;-62
2023/07/18 06:10:49;;;;;;;4.80;2.43;;;;;;;;;;5044968;28;20224;-62
2023/07/18 06:13:17;;;;;;;4.90;2.90;;;;;;;;;;5051687;28;20218;-62
2023/07/18 06:15:49;;;;;;;5.50;2.63;;;;;;;;;;5051187;28;20253;-62
2023/07/18 06:18:17;;;;;;;4.77;2.67;;;;;;;;;;5037629;28;20211;-62
2023/07/18 06:20:48;;;;;;;3.10;2.73;;;;;;;;;;5037510;28;20237;-62
2023/07/18 06:23:16;;;;;;;5.33;3.17;;;;;;;;;;5037050;28;20626;-62
2023/07/18 06:25:43;;;;;;;4.30;2.30;;;;;;;;;;5037235;28;20579;-61
2023/07/18 06:28:13;;;;;;;4.50;2.63;;;;;;;;;;5037455;28;20280;-62
2023/07/18 06:30:40;;;;;;;4.03;2.27;;;;;;;;;;5037533;28;20242;-62
2023/07/18 06:33:09;;;;;;;5.07;2.70;;;;;;;;;;5037329;28;20241;-61
2023/07/18 06:35:37;;;;;;;5.57;2.53;;;;;;;;;;5037178;28;20216;-61
2023/07/18 06:38:05;;;;;;;3.80;2.70;;;;;;;;;;5037044;28;20208;-63
2023/07/18 06:40:33;;;;;;;3.33;2.40;;;;;;;;;;5053405;28;20226;-63
2023/07/18 06:43:00;;;;;;;5.27;3.17;;;;;;;;;;5062976;28;20198;-63
2023/07/18 06:45:32;;;;;;;4.97;2.40;;;;;;;;;;5070070;28;20204;-61
2023/07/18 06:48:00;;;;;;;7.03;2.43;;;;;;;;;;5056174;28;20227;-62
2023/07/18 06:50:28;;;;;;;8.27;2.93;;;;;;;;;;5050742;28;20231;-63
2023/07/18 06:52:55;;;;;;;5.60;2.13;;;;;;;;;;5042397;28;20206;-63
2023/07/18 06:55:23;;;;;;;4.77;2.70;;;;;;;;;;5048551;28;20204;-64
2023/07/18 06:57:51;;;;;;;3.73;2.90;;;;;;;;;;5055006;28;20210;-64
2023/07/18 07:00:19;;;;;;;6.00;2.70;;;;;;;;;;5042185;28;20588;-63
2023/07/18 07:02:48;;;;;;;3.97;2.80;;;;;;;;;;5049445;28;20660;-61
2023/07/18 07:05:16;;;;;;;6.97;2.70;;;;;;;;;;5044142;28;20207;-63
2023/07/18 07:07:45;;;;;;;6.20;2.67;;;;;;;;;;5045012;28;20211;-61
2023/07/18 07:10:13;;;;;;;8.57;3.10;;;;;;;;;;5055863;28;20235;-62
2023/07/18 07:12:40;;;;;;;3.17;2.67;;;;;;;;;;5045630;28;20704;-62
2023/07/18 07:15:08;;;;;;;5.07;2.80;;;;;;;;;;5056202;28;20250;-63
2023/07/18 07:17:36;;;;;;;6.23;2.53;;;;;;;;;;5041710;28;20210;-64
2023/07/18 07:20:06;;;;;;;5.30;2.80;;;;;;;;;;5053404;28;20225;-64
2023/07/18 07:22:34;;;;;;;6.70;3.03;;;;;;;;;;5040788;28;20307;-64
2023/07/18 07:25:03;;;;;;;4.90;2.97;;;;;;;;;;5050436;28;20206;-64
2023/07/18 07:27:30;;;;;;;5.07;2.73;;;;;;;;;;5051564;28;20210;-63
2023/07/18 07:29:58;;;;;;;6.30;3.23;;;;;;;;;;5044964;28;21040;-64
2023/07/18 07:32:26;;;;;;;4.50;3.03;;;;;;;;;;5064091;28;20674;-63
2023/07/18 07:34:54;;;;;;;3.60;2.40;;;;;;;;;;5058153;28;20678;-64
2023/07/18 07:37:23;;;;;;;6.90;3.00;;;;;;;;;;5059550;28;20209;-64
2023/07/18 07:39:51;;;;;;;3.63;2.60;;;;;;;;;;5052207;28;20231;-64
2023/07/18 07:42:19;;;;;;;4.03;2.67;;;;;;;;;;5060678;28;20206;-63
2023/07/18 07:44:50;;;;;;;5.30;3.00;;;;;;;;;;5057353;28;20236;-63
2023/07/18 07:47:18;;;;;;;10.87;3.40;;;;;;;;;;5045824;28;20261;-63
2023/07/18 07:49:46;;;;;;;8.77;3.47;;;;;;;;;;5053069;28;20224;-62
2023/07/18 07:52:14;;;;;;;7.13;3.07;;;;;;;;;;5059678;28;20204;-62
2023/07/18 07:54:44;;;;;;;7.10;3.17;;;;;;;;;;5060251;28;20540;-63
2023/07/18 07:57:12;;;;;;;4.43;2.93;;;;;;;;;;5043735;28;20215;-63
2023/07/18 07:59:40;;;;;;;6.10;3.03;;;;;;;;;;5046911;28;20928;-63
2023/07/18 08:02:08;;;;;;;5.80;3.20;;;;;;;;;;5056697;28;20206;-61
2023/07/18 08:04:38;;;;;;;4.80;2.77;;;;;;;;;;5049483;28;20288;-61
2023/07/18 08:07:06;;;;;;;4.80;3.13;;;;;;;;;;5042820;28;20208;-63
2023/07/18 08:09:38;;;;;;;3.20;2.23;;;;;;;;;;5039838;28;20229;-62
2023/07/18 08:12:09;;;;;;;5.90;2.87;;;;;;;;;;5039670;28;20573;-61
2023/07/18 08:14:38;;;;;;;6.33;3.13;;;;;;;;;;5039706;28;20221;-62
2023/07/18 08:17:06;;;;;;;5.83;3.10;;;;;;;;;;5051130;28;20202;-64
2023/07/18 08:19:35;;;;;;;6.67;3.57;;;;;;;;;;5064489;28;20734;-64
2023/07/18 08:22:03;;;;;;;5.45;3.33;;;;;;;;;;5052219;28;20199;-64
2023/07/18 08:24:31;;;;;;;4.80;3.10;;;;;;;;;;5039674;28;20252;-64
2023/07/18 08:26:59;;;;;;;3.80;3.08;;;;;;;;;;5039806;28;20253;-64
2023/07/18 08:29:29;;;;;;;7.10;3.42;;;;;;;;;;5039522;28;20211;-63
2023/07/18 08:31:58;;;;;;;5.43;2.85;;;;;;;;;;5039626;28;20214;-63
2023/07/18 08:34:26;;;;;;;39.35;9.02;;;;;;;;;;5053159;28;20325;-63
2023/07/18 08:36:54;;;;;;;23.67;7.63;;;;;;;;;;5059190;28;20213;-63
2023/07/18 08:39:21;;;;;;;7.57;4.20;;;;;;;;;;5059233;28;20301;-63
2023/07/18 08:41:51;;;;;;;6.80;3.42;;;;;;;;;;5044394;28;20230;-63
2023/07/18 08:44:20;;;;;;;5.55;3.22;;;;;;;;;;5039191;28;20212;-63
2023/07/18 08:46:49;;;;;;;7.57;3.28;;;;;;;;;;5042847;28;20292;-63
2023/07/18 08:49:17;;;;;;;6.43;3.57;;;;;;;;;;5059204;28;20207;-62
2023/07/18 08:51:46;;;;;;;7.53;3.53;;;;;;;;;;5058672;28;20231;-63
2023/07/18 08:54:13;;;;;;;5.00;3.23;;;;;;;;;;5049011;28;20205;-63
2023/07/18 08:56:43;;;;;;;7.70;3.37;;;;;;;;;;5061068;28;20242;-61
2023/07/18 08:59:11;;;;;;;6.27;3.60;;;;;;;;;;5055615;28;20204;-62
2023/07/18 09:01:45;;;;;;;7.97;3.53;;;;;;;;;;5038837;28;20564;-62
2023/07/18 09:04:15;;;;;;;4.40;2.60;;;;;;;;;;5060211;28;20202;-63
2023/07/18 09:06:47;;;;;;;5.83;3.40;;;;;;;;;;5058403;28;20198;-63
2023/07/18 09:09:21;;;;;;;7.53;3.20;;;;;;;;;;5067186;28;20206;-62
2023/07/18 09:11:55;;;;;;;8.43;3.50;;;;;;;;;;5049841;28;20267;-63
2023/07/18 09:14:26;;;;;;;4.67;3.50;;;;;;;;;;5043394;28;20664;-63
2023/07/18 09:16:55;;;;;;;7.05;3.90;;;;;;;;;;5051967;28;20209;-64
2023/07/18 09:19:38;;;;;;;5.50;3.42;;;;;;;;;;5042563;28;20210;-64
2023/07/18 09:22:06;;;;;;;4.38;3.53;;;;;;;;;;5040742;28;20281;-64
2023/07/18 09:24:36;;;;;;;7.63;4.03;;;;;;;;;;5054510;28;20203;-64
2023/07/18 09:27:04;;;;;;;11.30;3.80;;;;;;;;;;5052626;28;20235;-64
2023/07/18 09:29:32;;;;;;;11.27;4.15;;;;;;;;;;5041066;28;20206;-64
2023/07/18 09:32:00;;;;;;;11.52;5.40;;;;;;;;;;5039167;28;20718;-64
2023/07/18 09:34:29;;;;;;;9.43;4.28;;;;;;;;;;5044594;28;20242;-64
2023/07/18 09:36:59;;;;;;;6.95;4.05;;;;;;;;;;5044636;28;20570;-65
2023/07/18 09:39:27;;;;;;;14.20;4.18;;;;;;;;;;5057860;28;20214;-65
2023/07/18 09:41:56;;;;;;;6.90;4.22;;;;;;;;;;5057652;28;20207;-65
2023/07/18 09:44:24;;;;;;;7.22;3.75;;;;;;;;;;5057617;28;20253;-65
2023/07/18 09:47:00;;;;;;;6.90;4.20;;;;;;;;;;5057758;28;20206;-64
2023/07/18 09:49:29;;;;;;;5.47;4.00;;;;;;;;;;5041313;28;20705;-64
2023/07/18 09:52:04;;;;;;;7.47;4.03;;;;;;;;;;5037786;28;20227;-65
2023/07/18 09:54:32;;;;;;;8.35;4.65;;;;;;;;;;5041132;28;20234;-64
2023/07/18 09:57:02;;;;;;;4.82;3.78;;;;;;;;;;5057552;28;20222;-65
2023/07/18 09:59:29;;;;;;;6.78;3.97;;;;;;;;;;5051844;28;20218;-65
2023/07/18 10:01:58;;;;;;;7.18;3.95;;;;;;;;;;5037862;28;20230;-65
2023/07/18 10:04:26;;;;;;;8.43;4.18;;;;;;;;;;5064304;28;20565;-65
2023/07/18 10:06:55;;;;;;;6.78;4.47;;;;;;;;;;5057389;28;20257;-65
2023/07/18 10:09:27;;;;;;;6.50;4.60;;;;;;;;;;5057315;28;20204;-64
2023/07/18 10:12:09;;;;;;;9.25;5.43;;;;;;;;;;5057122;28;20263;-64
2023/07/18 10:14:50;;;;;;;7.97;4.43;;;;;;;;;;5056580;28;20252;-64
2023/07/18 10:17:42;;;;;;;11.77;4.47;;;;;;;;;;5055091;28;20206;-64
2023/07/18 10:20:13;;;;;;;8.68;4.70;;;;;;;;;;5051811;28;20234;-62
2023/07/18 10:22:48;;;;;;;8.50;4.43;;;;;;;;;;5057025;28;20199;-63
2023/07/18 10:25:19;;;;;;;8.20;4.80;;;;;;;;;;5040155;28;20548;-62
2023/07/18 10:27:48;;;;;;;6.65;4.13;;;;;;;;;;5037348;28;20671;-63
2023/07/18 10:30:17;;;;;;;7.65;3.90;;;;;;;;;;5054453;28;20721;-63
2023/07/18 10:32:51;;;;;;;7.85;4.57;;;;;;;;;;5045592;28;20239;-63
2023/07/18 10:35:21;;;;;;;9.60;4.38;;;;;;;;;;5037833;28;20203;-62
2023/07/18 10:37:51;;;;;;;7.47;4.40;;;;;;;;;;5042606;28;20210;-62
2023/07/18 10:40:35;;;;;;;5.75;4.97;;;;;;;;;;5056011;28;20226;-63
2023/07/18 10:43:05;;;;;;;6.50;4.38;;;;;;;;;;5041845;28;20210;-62
2023/07/18 10:45:36;;;;;;;9.27;4.82;;;;;;;;;;5037585;28;20207;-62
2023/07/18 10:48:10;;;;;;;5.25;4.55;;;;;;;;;;5051306;28;20206;-63
2023/07/18 10:50:38;;;;;;;6.25;4.28;;;;;;;;;;5044879;28;20229;-62
2023/07/18 10:53:05;;;;;;;8.38;4.80;;;;;;;;;;5037007;28;20216;-62
2023/07/18 10:55:35;;;;;;;6.70;4.32;;;;;;;;;;5038396;28;20198;-68
2023/07/18 10:58:02;;;;;;;8.68;4.47;;;;;;;;;;5036501;28;20579;-67
2023/07/18 11:00:30;;;;;;;7.25;4.28;;;;;;;;;;5055534;28;20223;-70
2023/07/18 11:02:58;;;;;;;12.68;5.97;;;;;;;;;;5060028;28;20225;-69
2023/07/18 11:05:26;;;;;;;5.72;4.47;;;;;;;;;;5067055;28;20206;-69
2023/07/18 11:07:54;;;;;;;8.70;4.15;;;;;;;;;;5065798;28;20199;-69
2023/07/18 11:10:22;;;;;;;7.05;4.43;;;;;;;;;;5064603;28;20770;-68
2023/07/18 11:12:52;;;;;;;7.43;4.68;;;;;;;;;;5050775;28;20310;-68
2023/07/18 11:15:21;;;;;;;7.60;4.50;;;;;;;;;;5037356;28;20260;-62
2023/07/18 11:17:48;;;;;;;9.35;4.15;;;;;;;;;;5037360;28;20211;-63
2023/07/18 11:20:16;;;;;;;7.90;5.05;;;;;;;;;;5052641;28;20226;-64
2023/07/18 11:22:44;;;;;;;10.73;4.75;;;;;;;;;;5056552;28;20630;-64
2023/07/18 11:25:12;;;;;;;8.43;4.20;;;;;;;;;;5057279;28;20298;-64
2023/07/18 11:27:40;;;;;;;6.43;4.38;;;;;;;;;;5055236;28;20240;-64
2023/07/18 11:30:09;;;;;;;7.47;4.20;;;;;;;;;;5055307;28;20710;-65
2023/07/18 11:32:38;;;;;;;5.72;4.70;;;;;;;;;;5052152;28;20327;-65
2023/07/18 11:35:08;;;;;;;4.97;4.45;;;;;;;;;;5045268;28;20269;-65
2023/07/18 11:37:36;;;;;;;13.40;5.00;;;;;;;;;;5035361;28;20208;-63
2023/07/18 11:40:10;;;;;;;6.28;5.18;;;;;;;;;;5049336;28;20233;-62
2023/07/18 11:42:45;;;;;;;8.48;4.68;;;;;;;;;;5041688;28;20203;-62
2023/07/18 11:45:15;;;;;;;5.85;4.22;;;;;;;;;;5055728;28;20237;-62
2023/07/18 11:47:48;;;;;;;6.57;5.10;;;;;;;;;;5067840;28;20209;-62
2023/07/18 11:50:15;;;;;;;8.75;5.18;;;;;;;;;;5063602;28;20221;-62
2023/07/18 11:52:46;;;;;;;6.65;4.75;;;;;;;;;;5070806;28;20219;-63
2023/07/18 11:55:14;;;;;;;11.02;5.07;;;;;;;;;;5064599;28;20198;-63
2023/07/18 11:57:42;;;;;;;6.20;5.20;;;;;;;;;;5055749;28;20203;-63
2023/07/18 12:00:11;;;;;;;7.85;5.28;;;;;;;;;;5047872;28;21793;-63
2023/07/18 12:02:40;;;;;;;10.90;5.20;;;;;;;;;;5059714;28;20226;-63
2023/07/18 12:05:09;;;;;;;9.00;4.72;;;;;;;;;;5048187;28;20237;-63
2023/07/18 12:07:36;;;;;;;5.38;4.63;;;;;;;;;;5059501;28;20207;-62
2023/07/18 12:10:06;;;;;;;6.20;5.18;;;;;;;;;;5059764;28;20725;-63
2023/07/18 12:12:34;;;;;;;5.68;5.18;;;;;;;;;;5059536;28;20226;-63
2023/07/18 12:15:02;;;;;;;9.88;5.30;;;;;;;;;;5059626;28;20289;-62
2023/07/18 12:17:30;;;;;;;8.52;4.57;;;;;;;;;;5043407;28;20229;-62
2023/07/18 12:19:59;;;;;;;6.45;4.95;;;;;;;;;;5039563;28;20273;-62
2023/07/18 12:22:27;;;;;;;5.63;4.85;;;;;;;;;;5039520;28;20210;-62
2023/07/18 12:24:55;;;;;;;6.35;4.63;;;;;;;;;;5039612;28;20293;-62
2023/07/18 12:27:23;;;;;;;8.27;4.80;;;;;;;;;;5039816;28;20214;-62
2023/07/18 12:29:51;;;;;;;9.00;4.57;;;;;;;;;;5039677;28;20234;-62
2023/07/18 12:32:18;;;;;;;7.35;4.93;;;;;;;;;;5052273;28;20400;-62
2023/07/18 12:34:48;;;;;;;6.22;4.80;;;;;;;;;;5059619;28;20214;-62
2023/07/18 12:37:17;;;;;;;8.75;4.45;;;;;;;;;;5059144;28;20214;-62
2023/07/18 12:39:45;;;;;;;6.72;4.18;;;;;;;;;;5059208;28;20213;-62
2023/07/18 12:42:12;;;;;;;7.18;4.18;;;;;;;;;;5039518;28;20203;-62
2023/07/18 12:44:41;;;;;;;7.28;4.18;;;;;;;;;;5039391;28;20219;-62
2023/07/18 12:47:09;;;;;;;4.85;4.30;;;;;;;;;;5050456;28;20202;-64
2023/07/18 12:49:37;;;;;;;6.15;5.00;;;;;;;;;;5044696;28;20261;-64
2023/07/18 12:52:08;;;;;;;6.97;4.55;;;;;;;;;;5039130;28;20241;-63
2023/07/18 12:54:37;;;;;;;6.00;4.68;;;;;;;;;;5038683;28;20294;-64
2023/07/18 12:57:06;;;;;;;9.02;4.90;;;;;;;;;;5044497;28;20202;-62
2023/07/18 12:59:33;;;;;;;9.25;4.68;;;;;;;;;;5045915;28;20195;-64
2023/07/18 13:02:01;;;;;;;6.05;4.80;;;;;;;;;;5049901;28;20303;-64
2023/07/18 13:04:29;;;;;;;8.90;5.88;;;;;;;;;;5038941;28;20229;-65
2023/07/18 13:06:57;;;;;;;9.93;4.95;;;;;;;;;;5056981;28;20217;-63
2023/07/18 13:09:25;;;;;;;7.07;5.10;;;;;;;;;;5058434;28;20572;-63
2023/07/18 13:11:54;;;;;;;6.90;4.82;;;;;;;;;;5048258;28;20217;-63
2023/07/18 13:14:22;;;;;;;6.50;4.47;;;;;;;;;;5062651;28;20207;-63
2023/07/18 13:16:50;;;;;;;4.85;4.18;;;;;;;;;;5063017;28;20198;-63
2023/07/18 13:19:20;;;;;;;7.10;5.28;;;;;;;;;;5061578;28;20314;-63
2023/07/18 13:21:48;;;;;;;6.95;5.68;;;;;;;;;;5067121;28;20302;-63
2023/07/18 13:24:15;;;;;;;7.90;5.20;;;;;;;;;;5061482;28;20258;-65
2023/07/18 13:26:43;;;;;;;10.02;5.90;;;;;;;;;;5046156;28;20222;-65
2023/07/18 13:29:13;;;;;;;7.63;4.78;;;;;;;;;;5052551;28;20311;-63
2023/07/18 13:31:41;;;;;;;7.18;5.80;;;;;;;;;;5067359;28;20226;-65
2023/07/18 13:34:09;;;;;;;7.32;4.88;;;;;;;;;;5042775;28;20245;-63
2023/07/18 13:36:41;;;;;;;6.93;5.72;;;;;;;;;;5044171;28;20253;-63
2023/07/18 13:39:08;;;;;;;6.80;4.38;;;;;;;;;;5041428;28;20648;-64
2023/07/18 13:41:36;;;;;;;5.18;4.68;;;;;;;;;;5057364;28;20226;-64
2023/07/18 13:44:04;;;;;;;7.50;5.45;;;;;;;;;;5050247;28;20662;-63
2023/07/18 13:46:33;;;;;;;5.55;4.95;;;;;;;;;;5040559;28;20199;-64
2023/07/18 13:49:01;;;;;;;5.13;4.63;;;;;;;;;;5047077;28;20217;-63
2023/07/18 13:51:31;;;;;;;6.85;4.22;;;;;;;;;;5057725;28;20289;-64
2023/07/18 13:53:59;;;;;;;6.18;5.00;;;;;;;;;;5057918;28;20230;-64
2023/07/18 13:56:27;;;;;;;6.95;4.90;;;;;;;;;;5046404;28;20632;-64
2023/07/18 13:58:54;;;;;;;8.90;5.07;;;;;;;;;;5049298;28;20700;-63
2023/07/18 14:01:22;;;;;;;6.53;4.68;;;;;;;;;;5040072;28;20337;-64
2023/07/18 14:03:51;;;;;;;5.50;4.55;;;;;;;;;;5037858;28;20627;-64
2023/07/18 14:06:20;;;;;;;7.78;4.65;;;;;;;;;;5036917;28;20207;-64
2023/07/18 14:08:49;;;;;;;6.78;5.30;;;;;;;;;;5037770;28;20643;-64
2023/07/18 14:11:16;;;;;;;5.15;4.63;;;;;;;;;;5037380;28;20227;-64
2023/07/18 14:13:45;;;;;;;10.60;5.32;;;;;;;;;;5046262;28;20222;-64
2023/07/18 14:16:13;;;;;;;10.95;5.13;;;;;;;;;;5057454;28;20229;-64
2023/07/18 14:18:41;;;;;;;7.13;5.28;;;;;;;;;;5069955;28;20301;-64
2023/07/18 14:21:10;;;;;;;7.32;5.28;;;;;;;;;;5057432;28;20221;-64
2023/07/18 14:23:38;;;;;;;7.13;4.28;;;;;;;;;;5057304;28;20204;-64
2023/07/18 14:26:06;;;;;;;9.05;4.88;;;;;;;;;;5049785;28;20203;-65
2023/07/18 14:28:33;;;;;;;6.35;4.97;;;;;;;;;;5037617;28;20211;-65
2023/07/18 14:31:04;;;;;;;6.65;4.70;;;;;;;;;;5048309;28;20305;-64
2023/07/18 14:33:32;;;;;;;6.47;4.70;;;;;;;;;;5057096;28;20293;-64
2023/07/18 14:36:00;;;;;;;9.40;4.72;;;;;;;;;;5057184;28;20735;-64
2023/07/18 14:38:29;;;;;;;9.93;5.80;;;;;;;;;;5054009;28;20225;-64
2023/07/18 14:40:57;;;;;;;8.90;4.50;;;;;;;;;;5038975;28;20223;-64
2023/07/18 14:43:29;;;;;;;6.65;4.40;;;;;;;;;;5037558;28;20211;-64
2023/07/18 14:45:57;;;;;;;7.70;4.15;;;;;;;;;;5037298;28;20238;-64
2023/07/18 14:48:25;;;;;;;6.00;4.32;;;;;;;;;;5050799;28;20207;-64
2023/07/18 14:50:53;;;;;;;8.45;4.70;;;;;;;;;;5037315;28;20237;-64
2023/07/18 14:53:21;;;;;;;5.10;4.03;;;;;;;;;;5037135;28;20222;-64